sensor_id;sensor_type;location;lat;lon;timestamp;P1;durP1;ratioP1;P2;durP2;ratioP2
76131;SDS011;64877;50.994;13.650;2023-11-18T00:00:00;5.57;;;2.80;;
76131;SDS011;64877;50.994;13.650;2023-11-18T00:02:25;5.18;;;2.92;;
76131;SDS011;64877;50.994;13.650;2023-11-18T00:04:51;3.80;;;2.47;;
76131;SDS011;64877;50.994;13.650;2023-11-18T00:07:16;6.05;;;2.88;;
76131;SDS011;64877;50.994;13.650;2023-11-18T00:09:42;5.03;;;3.05;;
76131;SDS011;64877;50.994;13.650;2023-11-18T00:12:11;4.88;;;2.63;;
76131;SDS011;64877;50.994;13.650;2023-11-18T00:14:39;4.55;;;2.65;;
76131;SDS011;64877;50.994;13.650;2023-11-18T00:17:05;5.45;;;3.33;;
76131;SDS011;64877;50.994;13.650;2023-11-18T00:19:31;6.10;;;3.20;;
76131;SDS011;64877;50.994;13.650;2023-11-18T00:21:56;7.32;;;3.83;;
76131;SDS011;64877;50.994;13.650;2023-11-18T00:24:22;8.68;;;4.57;;
76131;SDS011;64877;50.994;13.650;2023-11-18T00:26:47;7.95;;;5.05;;
76131;SDS011;64877;50.994;13.650;2023-11-18T00:29:12;8.15;;;4.93;;
76131;SDS011;64877;50.994;13.650;2023-11-18T00:31:38;8.73;;;4.97;;
76131;SDS011;64877;50.994;13.650;2023-11-18T00:34:03;7.40;;;4.60;;
76131;SDS011;64877;50.994;13.650;2023-11-18T00:36:29;6.70;;;4.97;;
76131;SDS011;64877;50.994;13.650;2023-11-18T00:38:54;6.95;;;4.82;;
76131;SDS011;64877;50.994;13.650;2023-11-18T00:41:20;8.20;;;4.47;;
76131;SDS011;64877;50.994;13.650;2023-11-18T00:43:46;6.50;;;4.60;;
76131;SDS011;64877;50.994;13.650;2023-11-18T00:46:12;9.02;;;5.53;;
76131;SDS011;64877;50.994;13.650;2023-11-18T00:48:38;7.03;;;4.70;;
76131;SDS011;64877;50.994;13.650;2023-11-18T00:51:04;8.75;;;4.75;;
76131;SDS011;64877;50.994;13.650;2023-11-18T00:53:31;6.43;;;4.35;;
76131;SDS011;64877;50.994;13.650;2023-11-18T00:55:56;7.68;;;4.47;;
76131;SDS011;64877;50.994;13.650;2023-11-18T00:58:21;7.13;;;4.72;;
76131;SDS011;64877;50.994;13.650;2023-11-18T01:00:47;6.75;;;4.45;;
76131;SDS011;64877;50.994;13.650;2023-11-18T01:03:13;5.68;;;4.40;;
76131;SDS011;64877;50.994;13.650;2023-11-18T01:05:38;12.38;;;4.32;;
76131;SDS011;64877;50.994;13.650;2023-11-18T01:08:04;6.07;;;4.15;;
76131;SDS011;64877;50.994;13.650;2023-11-18T01:10:30;7.53;;;4.68;;
76131;SDS011;64877;50.994;13.650;2023-11-18T01:12:56;6.88;;;4.10;;
76131;SDS011;64877;50.994;13.650;2023-11-18T01:15:23;9.45;;;3.90;;
76131;SDS011;64877;50.994;13.650;2023-11-18T01:17:48;6.97;;;4.20;;
76131;SDS011;64877;50.994;13.650;2023-11-18T01:20:14;7.15;;;4.57;;
76131;SDS011;64877;50.994;13.650;2023-11-18T01:22:46;8.35;;;3.95;;
76131;SDS011;64877;50.994;13.650;2023-11-18T01:25:12;5.72;;;3.38;;
76131;SDS011;64877;50.994;13.650;2023-11-18T01:27:37;8.93;;;4.47;;
76131;SDS011;64877;50.994;13.650;2023-11-18T01:30:03;7.30;;;4.28;;
76131;SDS011;64877;50.994;13.650;2023-11-18T01:32:30;5.85;;;3.53;;
76131;SDS011;64877;50.994;13.650;2023-11-18T01:34:55;6.55;;;3.72;;
76131;SDS011;64877;50.994;13.650;2023-11-18T01:37:21;6.35;;;4.05;;
76131;SDS011;64877;50.994;13.650;2023-11-18T01:39:47;5.20;;;3.70;;
76131;SDS011;64877;50.994;13.650;2023-11-18T01:42:12;7.72;;;4.03;;
76131;SDS011;64877;50.994;13.650;2023-11-18T01:44:38;5.85;;;3.75;;
76131;SDS011;64877;50.994;13.650;2023-11-18T01:47:04;6.95;;;3.83;;
76131;SDS011;64877;50.994;13.650;2023-11-18T01:49:32;7.90;;;3.90;;
76131;SDS011;64877;50.994;13.650;2023-11-18T01:52:06;5.80;;;3.42;;
76131;SDS011;64877;50.994;13.650;2023-11-18T01:54:38;6.97;;;4.45;;
76131;SDS011;64877;50.994;13.650;2023-11-18T01:57:04;7.35;;;4.25;;
76131;SDS011;64877;50.994;13.650;2023-11-18T01:59:34;6.45;;;4.20;;
76131;SDS011;64877;50.994;13.650;2023-11-18T02:02:00;4.90;;;3.20;;
76131;SDS011;64877;50.994;13.650;2023-11-18T02:04:29;6.50;;;4.25;;
76131;SDS011;64877;50.994;13.650;2023-11-18T02:06:55;6.28;;;3.33;;
76131;SDS011;64877;50.994;13.650;2023-11-18T02:09:22;5.43;;;3.33;;
76131;SDS011;64877;50.994;13.650;2023-11-18T02:12:14;6.45;;;4.10;;
76131;SDS011;64877;50.994;13.650;2023-11-18T02:14:52;6.13;;;3.75;;
76131;SDS011;64877;50.994;13.650;2023-11-18T02:17:21;6.88;;;4.47;;
76131;SDS011;64877;50.994;13.650;2023-11-18T02:19:50;9.15;;;4.60;;
76131;SDS011;64877;50.994;13.650;2023-11-18T02:24:43;8.38;;;4.15;;
76131;SDS011;64877;50.994;13.650;2023-11-18T02:27:08;6.10;;;3.85;;
76131;SDS011;64877;50.994;13.650;2023-11-18T02:29:37;7.15;;;4.53;;
76131;SDS011;64877;50.994;13.650;2023-11-18T02:35:06;5.97;;;4.05;;
76131;SDS011;64877;50.994;13.650;2023-11-18T02:37:37;7.10;;;3.60;;
76131;SDS011;64877;50.994;13.650;2023-11-18T02:40:05;6.88;;;3.75;;
76131;SDS011;64877;50.994;13.650;2023-11-18T02:42:39;6.25;;;4.40;;
76131;SDS011;64877;50.994;13.650;2023-11-18T02:45:07;5.57;;;3.15;;
76131;SDS011;64877;50.994;13.650;2023-11-18T02:47:33;6.60;;;3.60;;
76131;SDS011;64877;50.994;13.650;2023-11-18T02:49:59;7.68;;;4.20;;
76131;SDS011;64877;50.994;13.650;2023-11-18T02:52:36;6.25;;;3.85;;
76131;SDS011;64877;50.994;13.650;2023-11-18T02:55:03;7.22;;;3.58;;
76131;SDS011;64877;50.994;13.650;2023-11-18T02:57:33;7.50;;;4.20;;
76131;SDS011;64877;50.994;13.650;2023-11-18T02:59:59;5.47;;;3.20;;
76131;SDS011;64877;50.994;13.650;2023-11-18T03:02:28;6.20;;;3.50;;
76131;SDS011;64877;50.994;13.650;2023-11-18T03:04:58;6.50;;;3.55;;
76131;SDS011;64877;50.994;13.650;2023-11-18T03:07:24;6.93;;;3.33;;
76131;SDS011;64877;50.994;13.650;2023-11-18T03:09:52;5.78;;;3.58;;
76131;SDS011;64877;50.994;13.650;2023-11-18T03:12:21;6.07;;;3.80;;
76131;SDS011;64877;50.994;13.650;2023-11-18T03:14:46;6.28;;;3.80;;
76131;SDS011;64877;50.994;13.650;2023-11-18T03:17:13;8.73;;;4.65;;
76131;SDS011;64877;50.994;13.650;2023-11-18T03:19:38;7.07;;;4.05;;
76131;SDS011;64877;50.994;13.650;2023-11-18T03:22:04;5.82;;;3.53;;
76131;SDS011;64877;50.994;13.650;2023-11-18T03:24:30;8.90;;;4.07;;
76131;SDS011;64877;50.994;13.650;2023-11-18T03:26:57;6.30;;;3.75;;
76131;SDS011;64877;50.994;13.650;2023-11-18T03:29:22;7.03;;;3.72;;
76131;SDS011;64877;50.994;13.650;2023-11-18T03:31:48;5.85;;;3.80;;
76131;SDS011;64877;50.994;13.650;2023-11-18T03:34:17;7.97;;;4.30;;
76131;SDS011;64877;50.994;13.650;2023-11-18T03:36:47;6.70;;;4.57;;
76131;SDS011;64877;50.994;13.650;2023-11-18T03:39:12;9.07;;;5.28;;
76131;SDS011;64877;50.994;13.650;2023-11-18T03:41:39;7.68;;;5.00;;
76131;SDS011;64877;50.994;13.650;2023-11-18T03:44:05;7.40;;;4.07;;
76131;SDS011;64877;50.994;13.650;2023-11-18T03:46:31;6.47;;;3.47;;
76131;SDS011;64877;50.994;13.650;2023-11-18T03:48:59;11.00;;;4.63;;
76131;SDS011;64877;50.994;13.650;2023-11-18T03:51:26;6.88;;;4.00;;
76131;SDS011;64877;50.994;13.650;2023-11-18T03:53:51;7.30;;;3.72;;
76131;SDS011;64877;50.994;13.650;2023-11-18T03:56:17;8.68;;;4.32;;
76131;SDS011;64877;50.994;13.650;2023-11-18T03:58:45;9.25;;;4.93;;
76131;SDS011;64877;50.994;13.650;2023-11-18T04:01:21;8.65;;;4.35;;
76131;SDS011;64877;50.994;13.650;2023-11-18T04:03:52;9.50;;;4.38;;
76131;SDS011;64877;50.994;13.650;2023-11-18T04:06:19;7.35;;;4.57;;
76131;SDS011;64877;50.994;13.650;2023-11-18T04:11:12;6.75;;;4.03;;
76131;SDS011;64877;50.994;13.650;2023-11-18T04:13:39;7.18;;;4.25;;
76131;SDS011;64877;50.994;13.650;2023-11-18T04:16:14;7.00;;;4.00;;
76131;SDS011;64877;50.994;13.650;2023-11-18T04:18:41;9.32;;;4.00;;
76131;SDS011;64877;50.994;13.650;2023-11-18T04:21:08;8.40;;;4.40;;
76131;SDS011;64877;50.994;13.650;2023-11-18T04:23:36;6.70;;;4.05;;
76131;SDS011;64877;50.994;13.650;2023-11-18T04:26:06;6.85;;;4.05;;
76131;SDS011;64877;50.994;13.650;2023-11-18T04:28:32;7.75;;;4.60;;
76131;SDS011;64877;50.994;13.650;2023-11-18T04:31:02;8.82;;;4.43;;
76131;SDS011;64877;50.994;13.650;2023-11-18T04:33:28;7.75;;;4.35;;
76131;SDS011;64877;50.994;13.650;2023-11-18T04:35:54;7.88;;;4.53;;
76131;SDS011;64877;50.994;13.650;2023-11-18T04:38:23;6.10;;;3.50;;
76131;SDS011;64877;50.994;13.650;2023-11-18T04:40:49;6.07;;;3.42;;
76131;SDS011;64877;50.994;13.650;2023-11-18T04:43:14;9.05;;;4.32;;
76131;SDS011;64877;50.994;13.650;2023-11-18T04:45:40;6.25;;;3.65;;
76131;SDS011;64877;50.994;13.650;2023-11-18T04:48:08;6.00;;;3.60;;
76131;SDS011;64877;50.994;13.650;2023-11-18T04:50:34;5.63;;;3.22;;
76131;SDS011;64877;50.994;13.650;2023-11-18T04:52:59;5.93;;;4.13;;
76131;SDS011;64877;50.994;13.650;2023-11-18T04:55:25;6.28;;;3.40;;
76131;SDS011;64877;50.994;13.650;2023-11-18T04:57:54;9.18;;;3.92;;
76131;SDS011;64877;50.994;13.650;2023-11-18T05:00:20;8.18;;;4.00;;
76131;SDS011;64877;50.994;13.650;2023-11-18T05:02:45;9.55;;;3.85;;
76131;SDS011;64877;50.994;13.650;2023-11-18T05:05:13;6.72;;;3.60;;
76131;SDS011;64877;50.994;13.650;2023-11-18T05:07:43;9.57;;;4.13;;
76131;SDS011;64877;50.994;13.650;2023-11-18T05:10:09;6.55;;;4.20;;
76131;SDS011;64877;50.994;13.650;2023-11-18T05:12:35;7.53;;;3.90;;
76131;SDS011;64877;50.994;13.650;2023-11-18T05:15:02;7.03;;;3.78;;
76131;SDS011;64877;50.994;13.650;2023-11-18T05:17:29;6.97;;;3.60;;
76131;SDS011;64877;50.994;13.650;2023-11-18T05:19:55;8.85;;;3.65;;
76131;SDS011;64877;50.994;13.650;2023-11-18T05:22:20;5.60;;;3.67;;
76131;SDS011;64877;50.994;13.650;2023-11-18T05:24:46;7.72;;;4.93;;
76131;SDS011;64877;50.994;13.650;2023-11-18T05:27:13;6.40;;;4.00;;
76131;SDS011;64877;50.994;13.650;2023-11-18T05:29:39;6.63;;;4.22;;
76131;SDS011;64877;50.994;13.650;2023-11-18T05:32:07;8.38;;;3.97;;
76131;SDS011;64877;50.994;13.650;2023-11-18T05:34:33;7.05;;;3.67;;
76131;SDS011;64877;50.994;13.650;2023-11-18T05:37:00;6.88;;;4.18;;
76131;SDS011;64877;50.994;13.650;2023-11-18T05:39:26;9.00;;;4.82;;
76131;SDS011;64877;50.994;13.650;2023-11-18T05:41:54;7.85;;;4.30;;
76131;SDS011;64877;50.994;13.650;2023-11-18T05:44:21;6.18;;;4.13;;
76131;SDS011;64877;50.994;13.650;2023-11-18T05:46:56;7.10;;;5.03;;
76131;SDS011;64877;50.994;13.650;2023-11-18T05:49:22;7.15;;;4.10;;
76131;SDS011;64877;50.994;13.650;2023-11-18T05:51:49;6.47;;;4.18;;
76131;SDS011;64877;50.994;13.650;2023-11-18T05:54:15;6.32;;;3.75;;
76131;SDS011;64877;50.994;13.650;2023-11-18T05:56:40;8.52;;;4.82;;
76131;SDS011;64877;50.994;13.650;2023-11-18T05:59:06;9.40;;;4.28;;
76131;SDS011;64877;50.994;13.650;2023-11-18T06:01:33;6.88;;;4.07;;
76131;SDS011;64877;50.994;13.650;2023-11-18T06:03:59;8.80;;;4.32;;
76131;SDS011;64877;50.994;13.650;2023-11-18T06:06:26;6.70;;;4.25;;
76131;SDS011;64877;50.994;13.650;2023-11-18T06:08:51;7.10;;;4.50;;
76131;SDS011;64877;50.994;13.650;2023-11-18T06:11:18;6.95;;;4.60;;
76131;SDS011;64877;50.994;13.650;2023-11-18T06:13:52;8.25;;;4.00;;
76131;SDS011;64877;50.994;13.650;2023-11-18T06:16:19;6.80;;;4.50;;
76131;SDS011;64877;50.994;13.650;2023-11-18T06:18:53;7.60;;;4.28;;
76131;SDS011;64877;50.994;13.650;2023-11-18T06:21:20;9.55;;;4.65;;
76131;SDS011;64877;50.994;13.650;2023-11-18T06:23:50;10.15;;;5.47;;
76131;SDS011;64877;50.994;13.650;2023-11-18T06:26:16;7.63;;;4.10;;
76131;SDS011;64877;50.994;13.650;2023-11-18T06:28:46;7.80;;;5.00;;
76131;SDS011;64877;50.994;13.650;2023-11-18T06:31:14;6.78;;;4.32;;
76131;SDS011;64877;50.994;13.650;2023-11-18T06:33:43;10.10;;;5.38;;
76131;SDS011;64877;50.994;13.650;2023-11-18T06:36:10;11.25;;;5.50;;
76131;SDS011;64877;50.994;13.650;2023-11-18T06:38:45;8.80;;;5.47;;
76131;SDS011;64877;50.994;13.650;2023-11-18T06:41:11;8.38;;;4.25;;
76131;SDS011;64877;50.994;13.650;2023-11-18T06:43:39;9.18;;;5.25;;
76131;SDS011;64877;50.994;13.650;2023-11-18T06:48:59;8.73;;;5.10;;
76131;SDS011;64877;50.994;13.650;2023-11-18T06:51:29;8.18;;;4.68;;
76131;SDS011;64877;50.994;13.650;2023-11-18T06:53:57;7.85;;;4.72;;
76131;SDS011;64877;50.994;13.650;2023-11-18T06:56:23;6.75;;;4.32;;
76131;SDS011;64877;50.994;13.650;2023-11-18T06:58:49;8.50;;;4.47;;
76131;SDS011;64877;50.994;13.650;2023-11-18T07:01:15;7.68;;;4.70;;
76131;SDS011;64877;50.994;13.650;2023-11-18T07:03:41;9.75;;;4.70;;
76131;SDS011;64877;50.994;13.650;2023-11-18T07:06:07;9.80;;;4.82;;
76131;SDS011;64877;50.994;13.650;2023-11-18T07:08:35;9.68;;;5.72;;
76131;SDS011;64877;50.994;13.650;2023-11-18T07:11:01;8.20;;;4.70;;
76131;SDS011;64877;50.994;13.650;2023-11-18T07:13:27;9.30;;;5.32;;
76131;SDS011;64877;50.994;13.650;2023-11-18T07:15:53;14.00;;;5.70;;
76131;SDS011;64877;50.994;13.650;2023-11-18T07:18:21;11.18;;;5.28;;
76131;SDS011;64877;50.994;13.650;2023-11-18T07:20:50;9.20;;;5.72;;
76131;SDS011;64877;50.994;13.650;2023-11-18T07:23:18;10.48;;;5.82;;
76131;SDS011;64877;50.994;13.650;2023-11-18T07:25:45;14.35;;;6.78;;
76131;SDS011;64877;50.994;13.650;2023-11-18T07:28:13;10.93;;;6.22;;
76131;SDS011;64877;50.994;13.650;2023-11-18T07:30:41;10.63;;;6.05;;
76131;SDS011;64877;50.994;13.650;2023-11-18T07:33:08;16.02;;;6.63;;
76131;SDS011;64877;50.994;13.650;2023-11-18T07:35:34;10.02;;;5.93;;
76131;SDS011;64877;50.994;13.650;2023-11-18T07:40:27;9.98;;;6.15;;
76131;SDS011;64877;50.994;13.650;2023-11-18T07:42:56;13.52;;;6.72;;
76131;SDS011;64877;50.994;13.650;2023-11-18T07:45:22;9.95;;;6.30;;
76131;SDS011;64877;50.994;13.650;2023-11-18T07:47:51;11.60;;;6.47;;
76131;SDS011;64877;50.994;13.650;2023-11-18T07:50:17;10.20;;;5.63;;
76131;SDS011;64877;50.994;13.650;2023-11-18T07:52:45;10.48;;;6.32;;
76131;SDS011;64877;50.994;13.650;2023-11-18T07:55:12;12.02;;;6.15;;
76131;SDS011;64877;50.994;13.650;2023-11-18T07:57:38;12.45;;;6.57;;
76131;SDS011;64877;50.994;13.650;2023-11-18T08:00:04;10.13;;;6.05;;
76131;SDS011;64877;50.994;13.650;2023-11-18T08:02:39;9.48;;;5.25;;
76131;SDS011;64877;50.994;13.650;2023-11-18T08:05:05;8.95;;;5.53;;
76131;SDS011;64877;50.994;13.650;2023-11-18T08:07:41;10.27;;;6.25;;
76131;SDS011;64877;50.994;13.650;2023-11-18T08:10:09;9.15;;;5.85;;
76131;SDS011;64877;50.994;13.650;2023-11-18T08:12:38;12.88;;;6.55;;
76131;SDS011;64877;50.994;13.650;2023-11-18T08:15:04;14.25;;;7.82;;
76131;SDS011;64877;50.994;13.650;2023-11-18T08:17:31;11.82;;;6.53;;
76131;SDS011;64877;50.994;13.650;2023-11-18T08:19:59;12.43;;;6.43;;
76131;SDS011;64877;50.994;13.650;2023-11-18T08:22:25;8.43;;;5.90;;
76131;SDS011;64877;50.994;13.650;2023-11-18T08:24:50;9.68;;;6.00;;
76131;SDS011;64877;50.994;13.650;2023-11-18T08:27:16;9.93;;;5.53;;
76131;SDS011;64877;50.994;13.650;2023-11-18T08:29:41;9.27;;;5.60;;
76131;SDS011;64877;50.994;13.650;2023-11-18T08:32:07;10.05;;;5.43;;
76131;SDS011;64877;50.994;13.650;2023-11-18T08:34:35;10.85;;;4.90;;
76131;SDS011;64877;50.994;13.650;2023-11-18T08:37:03;8.77;;;5.82;;
76131;SDS011;64877;50.994;13.650;2023-11-18T08:39:29;8.63;;;4.43;;
76131;SDS011;64877;50.994;13.650;2023-11-18T08:41:55;8.60;;;5.38;;
76131;SDS011;64877;50.994;13.650;2023-11-18T08:44:21;9.38;;;4.60;;
76131;SDS011;64877;50.994;13.650;2023-11-18T08:46:48;7.35;;;4.80;;
76131;SDS011;64877;50.994;13.650;2023-11-18T08:49:14;8.05;;;4.60;;
76131;SDS011;64877;50.994;13.650;2023-11-18T08:51:46;7.70;;;4.70;;
76131;SDS011;64877;50.994;13.650;2023-11-18T08:54:23;9.38;;;4.75;;
76131;SDS011;64877;50.994;13.650;2023-11-18T08:56:54;9.38;;;5.13;;
76131;SDS011;64877;50.994;13.650;2023-11-18T08:59:20;12.70;;;4.85;;
76131;SDS011;64877;50.994;13.650;2023-11-18T09:01:53;8.98;;;4.80;;
76131;SDS011;64877;50.994;13.650;2023-11-18T09:04:27;8.18;;;4.57;;
76131;SDS011;64877;50.994;13.650;2023-11-18T09:06:53;10.40;;;4.93;;
76131;SDS011;64877;50.994;13.650;2023-11-18T09:09:19;9.00;;;5.05;;
76131;SDS011;64877;50.994;13.650;2023-11-18T09:11:52;10.57;;;4.70;;
76131;SDS011;64877;50.994;13.650;2023-11-18T09:14:20;9.25;;;5.35;;
76131;SDS011;64877;50.994;13.650;2023-11-18T09:16:45;9.23;;;5.35;;
76131;SDS011;64877;50.994;13.650;2023-11-18T09:19:11;7.00;;;4.47;;
76131;SDS011;64877;50.994;13.650;2023-11-18T09:21:36;12.80;;;5.60;;
76131;SDS011;64877;50.994;13.650;2023-11-18T09:24:02;8.60;;;5.40;;
76131;SDS011;64877;50.994;13.650;2023-11-18T09:26:30;10.02;;;5.35;;
76131;SDS011;64877;50.994;13.650;2023-11-18T09:28:55;10.05;;;5.68;;
76131;SDS011;64877;50.994;13.650;2023-11-18T09:31:22;10.50;;;5.10;;
76131;SDS011;64877;50.994;13.650;2023-11-18T09:33:48;8.27;;;5.10;;
76131;SDS011;64877;50.994;13.650;2023-11-18T09:36:22;10.05;;;6.35;;
76131;SDS011;64877;50.994;13.650;2023-11-18T09:38:48;10.43;;;5.95;;
76131;SDS011;64877;50.994;13.650;2023-11-18T09:41:14;9.55;;;5.85;;
76131;SDS011;64877;50.994;13.650;2023-11-18T09:43:44;8.43;;;5.32;;
76131;SDS011;64877;50.994;13.650;2023-11-18T09:46:11;11.68;;;6.43;;
76131;SDS011;64877;50.994;13.650;2023-11-18T09:48:50;8.55;;;5.10;;
76131;SDS011;64877;50.994;13.650;2023-11-18T09:51:25;9.05;;;5.63;;
76131;SDS011;64877;50.994;13.650;2023-11-18T09:53:58;8.88;;;4.90;;
76131;SDS011;64877;50.994;13.650;2023-11-18T09:56:35;9.63;;;5.63;;
76131;SDS011;64877;50.994;13.650;2023-11-18T09:59:15;6.95;;;4.55;;
76131;SDS011;64877;50.994;13.650;2023-11-18T10:01:46;8.68;;;5.00;;
76131;SDS011;64877;50.994;13.650;2023-11-18T10:04:19;8.02;;;4.57;;
76131;SDS011;64877;50.994;13.650;2023-11-18T10:06:46;8.35;;;5.03;;
76131;SDS011;64877;50.994;13.650;2023-11-18T10:09:13;6.63;;;3.33;;
76131;SDS011;64877;50.994;13.650;2023-11-18T10:11:43;4.63;;;2.70;;
76131;SDS011;64877;50.994;13.650;2023-11-18T10:14:13;6.55;;;2.95;;
76131;SDS011;64877;50.994;13.650;2023-11-18T10:16:45;3.25;;;1.90;;
76131;SDS011;64877;50.994;13.650;2023-11-18T10:19:13;3.10;;;1.48;;
76131;SDS011;64877;50.994;13.650;2023-11-18T10:21:39;3.85;;;1.95;;
76131;SDS011;64877;50.994;13.650;2023-11-18T10:24:06;3.20;;;1.50;;
76131;SDS011;64877;50.994;13.650;2023-11-18T10:26:42;4.43;;;1.60;;
76131;SDS011;64877;50.994;13.650;2023-11-18T10:29:10;3.90;;;1.40;;
76131;SDS011;64877;50.994;13.650;2023-11-18T10:34:10;2.22;;;1.38;;
76131;SDS011;64877;50.994;13.650;2023-11-18T10:36:58;2.20;;;1.05;;
76131;SDS011;64877;50.994;13.650;2023-11-18T10:39:31;2.97;;;1.70;;
76131;SDS011;64877;50.994;13.650;2023-11-18T10:42:00;2.03;;;1.25;;
76131;SDS011;64877;50.994;13.650;2023-11-18T10:44:27;2.03;;;0.93;;
76131;SDS011;64877;50.994;13.650;2023-11-18T10:46:55;1.77;;;0.90;;
76131;SDS011;64877;50.994;13.650;2023-11-18T10:49:27;2.40;;;1.02;;
76131;SDS011;64877;50.994;13.650;2023-11-18T10:51:54;1.80;;;0.98;;
76131;SDS011;64877;50.994;13.650;2023-11-18T10:56:47;2.38;;;1.10;;
76131;SDS011;64877;50.994;13.650;2023-11-18T10:59:14;2.25;;;1.00;;
76131;SDS011;64877;50.994;13.650;2023-11-18T11:01:43;1.80;;;0.80;;
76131;SDS011;64877;50.994;13.650;2023-11-18T11:04:10;3.03;;;1.30;;
76131;SDS011;64877;50.994;13.650;2023-11-18T11:06:43;4.63;;;2.08;;
76131;SDS011;64877;50.994;13.650;2023-11-18T11:09:18;2.90;;;1.50;;
76131;SDS011;64877;50.994;13.650;2023-11-18T11:11:52;2.97;;;1.40;;
76131;SDS011;64877;50.994;13.650;2023-11-18T11:14:21;2.00;;;0.90;;
76131;SDS011;64877;50.994;13.650;2023-11-18T11:17:00;2.30;;;0.93;;
76131;SDS011;64877;50.994;13.650;2023-11-18T11:19:44;1.98;;;1.02;;
76131;SDS011;64877;50.994;13.650;2023-11-18T11:22:21;2.47;;;1.17;;
76131;SDS011;64877;50.994;13.650;2023-11-18T11:24:54;1.73;;;0.95;;
76131;SDS011;64877;50.994;13.650;2023-11-18T11:27:33;2.80;;;1.23;;
76131;SDS011;64877;50.994;13.650;2023-11-18T11:30:25;3.70;;;1.38;;
76131;SDS011;64877;50.994;13.650;2023-11-18T11:33:22;6.18;;;2.70;;
76131;SDS011;64877;50.994;13.650;2023-11-18T11:36:05;4.07;;;1.90;;
76131;SDS011;64877;50.994;13.650;2023-11-18T11:38:39;2.70;;;1.50;;
76131;SDS011;64877;50.994;13.650;2023-11-18T11:41:08;2.70;;;1.42;;
76131;SDS011;64877;50.994;13.650;2023-11-18T11:43:35;2.78;;;1.40;;
76131;SDS011;64877;50.994;13.650;2023-11-18T11:46:01;1.90;;;1.20;;
76131;SDS011;64877;50.994;13.650;2023-11-18T11:48:35;2.53;;;1.42;;
76131;SDS011;64877;50.994;13.650;2023-11-18T11:51:22;4.00;;;2.08;;
76131;SDS011;64877;50.994;13.650;2023-11-18T11:53:58;2.33;;;1.38;;
76131;SDS011;64877;50.994;13.650;2023-11-18T11:56:42;3.13;;;1.80;;
76131;SDS011;64877;50.994;13.650;2023-11-18T11:59:09;3.70;;;2.50;;
76131;SDS011;64877;50.994;13.650;2023-11-18T12:01:36;3.72;;;1.98;;
76131;SDS011;64877;50.994;13.650;2023-11-18T12:04:03;4.05;;;2.47;;
76131;SDS011;64877;50.994;13.650;2023-11-18T12:06:41;3.88;;;2.55;;
76131;SDS011;64877;50.994;13.650;2023-11-18T12:09:08;4.65;;;2.45;;
76131;SDS011;64877;50.994;13.650;2023-11-18T12:11:37;5.25;;;2.22;;
76131;SDS011;64877;50.994;13.650;2023-11-18T12:14:11;5.68;;;2.60;;
76131;SDS011;64877;50.994;13.650;2023-11-18T12:16:59;3.83;;;2.47;;
76131;SDS011;64877;50.994;13.650;2023-11-18T12:19:46;3.55;;;2.22;;
76131;SDS011;64877;50.994;13.650;2023-11-18T12:22:14;7.78;;;2.97;;
76131;SDS011;64877;50.994;13.650;2023-11-18T12:24:45;5.13;;;2.78;;
76131;SDS011;64877;50.994;13.650;2023-11-18T12:27:13;5.10;;;2.75;;
76131;SDS011;64877;50.994;13.650;2023-11-18T12:29:42;4.65;;;2.50;;
76131;SDS011;64877;50.994;13.650;2023-11-18T12:32:11;4.85;;;2.80;;
76131;SDS011;64877;50.994;13.650;2023-11-18T12:34:51;5.75;;;2.67;;
76131;SDS011;64877;50.994;13.650;2023-11-18T12:40:22;9.60;;;2.83;;
76131;SDS011;64877;50.994;13.650;2023-11-18T12:43:02;4.80;;;2.38;;
76131;SDS011;64877;50.994;13.650;2023-11-18T12:48:20;6.32;;;2.97;;
76131;SDS011;64877;50.994;13.650;2023-11-18T12:50:55;5.72;;;2.80;;
76131;SDS011;64877;50.994;13.650;2023-11-18T12:53:21;6.22;;;3.75;;
76131;SDS011;64877;50.994;13.650;2023-11-18T12:55:52;5.65;;;3.67;;
76131;SDS011;64877;50.994;13.650;2023-11-18T12:58:17;5.10;;;3.40;;
76131;SDS011;64877;50.994;13.650;2023-11-18T13:00:43;4.75;;;3.13;;
76131;SDS011;64877;50.994;13.650;2023-11-18T13:03:10;5.10;;;3.30;;
76131;SDS011;64877;50.994;13.650;2023-11-18T13:05:36;3.80;;;2.55;;
76131;SDS011;64877;50.994;13.650;2023-11-18T13:08:02;5.40;;;3.03;;
76131;SDS011;64877;50.994;13.650;2023-11-18T13:10:28;6.00;;;3.60;;
76131;SDS011;64877;50.994;13.650;2023-11-18T13:12:54;5.43;;;3.72;;
76131;SDS011;64877;50.994;13.650;2023-11-18T13:15:22;4.47;;;3.42;;
76131;SDS011;64877;50.994;13.650;2023-11-18T13:17:56;7.13;;;3.80;;
76131;SDS011;64877;50.994;13.650;2023-11-18T13:20:23;4.32;;;3.00;;
76131;SDS011;64877;50.994;13.650;2023-11-18T13:22:51;5.93;;;3.78;;
76131;SDS011;64877;50.994;13.650;2023-11-18T13:25:17;5.65;;;3.58;;
76131;SDS011;64877;50.994;13.650;2023-11-18T13:27:43;7.25;;;4.15;;
76131;SDS011;64877;50.994;13.650;2023-11-18T13:30:09;6.78;;;3.20;;
76131;SDS011;64877;50.994;13.650;2023-11-18T13:32:41;5.60;;;3.90;;
76131;SDS011;64877;50.994;13.650;2023-11-18T13:35:08;5.88;;;3.50;;
76131;SDS011;64877;50.994;13.650;2023-11-18T13:37:34;6.00;;;3.50;;
76131;SDS011;64877;50.994;13.650;2023-11-18T13:39:59;4.82;;;3.28;;
76131;SDS011;64877;50.994;13.650;2023-11-18T13:42:25;7.75;;;4.97;;
76131;SDS011;64877;50.994;13.650;2023-11-18T13:44:59;5.82;;;4.28;;
76131;SDS011;64877;50.994;13.650;2023-11-18T13:47:28;5.30;;;3.33;;
76131;SDS011;64877;50.994;13.650;2023-11-18T13:49:54;5.50;;;3.63;;
76131;SDS011;64877;50.994;13.650;2023-11-18T13:52:19;8.25;;;4.65;;
76131;SDS011;64877;50.994;13.650;2023-11-18T13:54:46;6.97;;;4.30;;
76131;SDS011;64877;50.994;13.650;2023-11-18T13:57:13;7.13;;;4.80;;
76131;SDS011;64877;50.994;13.650;2023-11-18T13:59:38;6.25;;;4.35;;
76131;SDS011;64877;50.994;13.650;2023-11-18T14:02:04;5.88;;;4.30;;
76131;SDS011;64877;50.994;13.650;2023-11-18T14:04:30;6.88;;;4.18;;
76131;SDS011;64877;50.994;13.650;2023-11-18T14:09:31;7.35;;;3.97;;
76131;SDS011;64877;50.994;13.650;2023-11-18T14:12:02;7.97;;;4.20;;
76131;SDS011;64877;50.994;13.650;2023-11-18T14:14:30;5.47;;;3.40;;
76131;SDS011;64877;50.994;13.650;2023-11-18T14:16:55;4.53;;;2.67;;
76131;SDS011;64877;50.994;13.650;2023-11-18T14:19:26;6.93;;;4.72;;
76131;SDS011;64877;50.994;13.650;2023-11-18T14:21:52;6.70;;;4.10;;
76131;SDS011;64877;50.994;13.650;2023-11-18T14:24:18;6.05;;;4.38;;
76131;SDS011;64877;50.994;13.650;2023-11-18T14:26:44;7.95;;;4.80;;
76131;SDS011;64877;50.994;13.650;2023-11-18T14:29:10;8.05;;;5.47;;
76131;SDS011;64877;50.994;13.650;2023-11-18T14:34:04;9.45;;;5.40;;
76131;SDS011;64877;50.994;13.650;2023-11-18T14:36:30;9.07;;;6.13;;
76131;SDS011;64877;50.994;13.650;2023-11-18T14:38:56;9.10;;;5.32;;
76131;SDS011;64877;50.994;13.650;2023-11-18T14:41:23;7.15;;;5.07;;
76131;SDS011;64877;50.994;13.650;2023-11-18T14:43:54;8.43;;;5.20;;
76131;SDS011;64877;50.994;13.650;2023-11-18T14:46:19;9.40;;;5.25;;
76131;SDS011;64877;50.994;13.650;2023-11-18T14:48:45;13.73;;;8.20;;
76131;SDS011;64877;50.994;13.650;2023-11-18T14:51:11;12.77;;;8.05;;
76131;SDS011;64877;50.994;13.650;2023-11-18T14:53:37;12.27;;;7.43;;
76131;SDS011;64877;50.994;13.650;2023-11-18T14:56:03;12.43;;;8.60;;
76131;SDS011;64877;50.994;13.650;2023-11-18T14:58:30;10.73;;;6.13;;
76131;SDS011;64877;50.994;13.650;2023-11-18T15:00:58;11.38;;;6.32;;
76131;SDS011;64877;50.994;13.650;2023-11-18T15:03:25;15.77;;;7.20;;
76131;SDS011;64877;50.994;13.650;2023-11-18T15:05:51;10.40;;;5.43;;
76131;SDS011;64877;50.994;13.650;2023-11-18T15:08:16;9.50;;;5.82;;